sensor_id;sensor_type;location;lat;lon;timestamp;temperature;humidity
16511;DHT22;8368;48.772;8.754;2023-06-22T00:02:17;18.30;99.90
16511;DHT22;8368;48.772;8.754;2023-06-22T00:04:43;18.20;99.90
16511;DHT22;8368;48.772;8.754;2023-06-22T00:07:09;18.20;99.90
16511;DHT22;8368;48.772;8.754;2023-06-22T00:09:34;18.20;99.90
16511;DHT22;8368;48.772;8.754;2023-06-22T00:12:01;18.20;99.90
16511;DHT22;8368;48.772;8.754;2023-06-22T00:14:27;18.10;99.90
16511;DHT22;8368;48.772;8.754;2023-06-22T00:16:53;18.10;99.90
16511;DHT22;8368;48.772;8.754;2023-06-22T00:19:23;18.10;99.90
16511;DHT22;8368;48.772;8.754;2023-06-22T00:21:52;18.10;99.90
16511;DHT22;8368;48.772;8.754;2023-06-22T00:24:21;18.10;99.90
16511;DHT22;8368;48.772;8.754;2023-06-22T00:26:50;18.10;99.90
16511;DHT22;8368;48.772;8.754;2023-06-22T00:29:16;18.10;99.90
16511;DHT22;8368;48.772;8.754;2023-06-22T00:31:42;18.10;99.90
16511;DHT22;8368;48.772;8.754;2023-06-22T00:34:08;18.10;99.90
16511;DHT22;8368;48.772;8.754;2023-06-22T00:36:34;18.10;99.90
16511;DHT22;8368;48.772;8.754;2023-06-22T00:39:00;18.10;99.90
16511;DHT22;8368;48.772;8.754;2023-06-22T00:41:25;18.20;99.90
16511;DHT22;8368;48.772;8.754;2023-06-22T00:43:54;18.40;99.90
16511;DHT22;8368;48.772;8.754;2023-06-22T00:46:19;18.60;99.90
16511;DHT22;8368;48.772;8.754;2023-06-22T00:48:46;18.80;99.90
16511;DHT22;8368;48.772;8.754;2023-06-22T00:51:11;18.90;99.90
16511;DHT22;8368;48.772;8.754;2023-06-22T00:53:37;19.00;99.90
16511;DHT22;8368;48.772;8.754;2023-06-22T00:56:03;19.00;99.90
16511;DHT22;8368;48.772;8.754;2023-06-22T00:58:31;18.90;99.90
16511;DHT22;8368;48.772;8.754;2023-06-22T01:00:56;18.80;99.90
16511;DHT22;8368;48.772;8.754;2023-06-22T01:03:22;18.70;99.90
16511;DHT22;8368;48.772;8.754;2023-06-22T01:05:48;18.60;99.90
16511;DHT22;8368;48.772;8.754;2023-06-22T01:11:09;18.40;99.90
16511;DHT22;8368;48.772;8.754;2023-06-22T01:16:29;18.20;99.90
16511;DHT22;8368;48.772;8.754;2023-06-22T01:18:57;18.10;99.90
16511;DHT22;8368;48.772;8.754;2023-06-22T01:21:28;18.00;99.90
16511;DHT22;8368;48.772;8.754;2023-06-22T01:24:08;18.00;99.90
16511;DHT22;8368;48.772;8.754;2023-06-22T01:26:41;17.90;99.90
16511;DHT22;8368;48.772;8.754;2023-06-22T01:29:08;17.80;99.90
16511;DHT22;8368;48.772;8.754;2023-06-22T01:31:39;17.80;99.90
16511;DHT22;8368;48.772;8.754;2023-06-22T01:34:07;17.70;99.90
16511;DHT22;8368;48.772;8.754;2023-06-22T01:36:34;17.60;99.90
16511;DHT22;8368;48.772;8.754;2023-06-22T01:39:00;17.60;99.90
16511;DHT22;8368;48.772;8.754;2023-06-22T01:41:28;17.70;99.90
16511;DHT22;8368;48.772;8.754;2023-06-22T01:43:56;17.70;99.90
16511;DHT22;8368;48.772;8.754;2023-06-22T01:46:22;17.60;99.90
16511;DHT22;8368;48.772;8.754;2023-06-22T01:48:48;17.70;99.90
16511;DHT22;8368;48.772;8.754;2023-06-22T01:51:15;17.70;99.90
16511;DHT22;8368;48.772;8.754;2023-06-22T01:53:40;17.60;99.90
16511;DHT22;8368;48.772;8.754;2023-06-22T01:56:06;17.60;99.90
16511;DHT22;8368;48.772;8.754;2023-06-22T01:58:32;17.60;99.90
16511;DHT22;8368;48.772;8.754;2023-06-22T02:03:43;17.50;99.90
16511;DHT22;8368;48.772;8.754;2023-06-22T02:06:33;17.50;99.90
16511;DHT22;8368;48.772;8.754;2023-06-22T02:09:07;17.50;99.90
16511;DHT22;8368;48.772;8.754;2023-06-22T02:11:36;17.50;99.90
16511;DHT22;8368;48.772;8.754;2023-06-22T02:14:02;17.50;99.90
16511;DHT22;8368;48.772;8.754;2023-06-22T02:16:31;17.50;99.90
16511;DHT22;8368;48.772;8.754;2023-06-22T02:18:57;17.40;99.90
16511;DHT22;8368;48.772;8.754;2023-06-22T02:21:28;17.30;99.90
16511;DHT22;8368;48.772;8.754;2023-06-22T02:23:54;17.20;99.90
16511;DHT22;8368;48.772;8.754;2023-06-22T02:26:19;17.20;99.90
16511;DHT22;8368;48.772;8.754;2023-06-22T02:28:45;17.10;99.90
16511;DHT22;8368;48.772;8.754;2023-06-22T02:31:11;17.10;99.90
16511;DHT22;8368;48.772;8.754;2023-06-22T02:33:37;17.00;99.90
16511;DHT22;8368;48.772;8.754;2023-06-22T02:36:02;17.00;99.90
16511;DHT22;8368;48.772;8.754;2023-06-22T02:38:37;17.00;99.90
16511;DHT22;8368;48.772;8.754;2023-06-22T02:41:02;17.00;99.90
16511;DHT22;8368;48.772;8.754;2023-06-22T02:43:28;16.90;99.90
16511;DHT22;8368;48.772;8.754;2023-06-22T02:45:53;16.90;99.90
16511;DHT22;8368;48.772;8.754;2023-06-22T02:48:19;16.90;99.90
16511;DHT22;8368;48.772;8.754;2023-06-22T02:50:45;16.80;99.90
16511;DHT22;8368;48.772;8.754;2023-06-22T02:53:10;16.80;99.90
16511;DHT22;8368;48.772;8.754;2023-06-22T02:55:36;16.80;99.90
16511;DHT22;8368;48.772;8.754;2023-06-22T02:58:01;16.80;99.90
16511;DHT22;8368;48.772;8.754;2023-06-22T03:00:30;16.80;99.90
16511;DHT22;8368;48.772;8.754;2023-06-22T03:02:56;16.80;99.90
16511;DHT22;8368;48.772;8.754;2023-06-22T03:05:22;16.80;99.90
16511;DHT22;8368;48.772;8.754;2023-06-22T03:07:48;16.70;99.90
16511;DHT22;8368;48.772;8.754;2023-06-22T03:10:15;16.70;99.90
16511;DHT22;8368;48.772;8.754;2023-06-22T03:12:41;16.70;99.90
16511;DHT22;8368;48.772;8.754;2023-06-22T03:15:12;16.60;99.90
16511;DHT22;8368;48.772;8.754;2023-06-22T03:17:38;16.60;99.90
16511;DHT22;8368;48.772;8.754;2023-06-22T03:20:05;16.60;99.90
16511;DHT22;8368;48.772;8.754;2023-06-22T03:22:39;16.60;99.90
16511;DHT22;8368;48.772;8.754;2023-06-22T03:25:05;16.50;99.90
16511;DHT22;8368;48.772;8.754;2023-06-22T03:27:36;16.50;99.90
16511;DHT22;8368;48.772;8.754;2023-06-22T03:30:03;16.40;99.90
16511;DHT22;8368;48.772;8.754;2023-06-22T03:32:28;16.40;99.90
16511;DHT22;8368;48.772;8.754;2023-06-22T03:34:54;16.40;99.90
16511;DHT22;8368;48.772;8.754;2023-06-22T03:37:19;16.40;99.90
16511;DHT22;8368;48.772;8.754;2023-06-22T03:39:45;16.40;99.90
16511;DHT22;8368;48.772;8.754;2023-06-22T03:42:10;16.40;99.90
16511;DHT22;8368;48.772;8.754;2023-06-22T03:44:36;16.40;99.90
16511;DHT22;8368;48.772;8.754;2023-06-22T03:47:03;16.40;99.90
16511;DHT22;8368;48.772;8.754;2023-06-22T03:49:29;16.40;99.90
16511;DHT22;8368;48.772;8.754;2023-06-22T03:51:54;16.40;99.90
16511;DHT22;8368;48.772;8.754;2023-06-22T03:54:20;16.40;99.90
16511;DHT22;8368;48.772;8.754;2023-06-22T03:56:45;16.40;99.90
16511;DHT22;8368;48.772;8.754;2023-06-22T03:59:11;16.40;99.90
16511;DHT22;8368;48.772;8.754;2023-06-22T04:01:36;16.40;99.90
16511;DHT22;8368;48.772;8.754;2023-06-22T04:04:02;16.50;99.90
16511;DHT22;8368;48.772;8.754;2023-06-22T04:06:28;16.50;99.90
16511;DHT22;8368;48.772;8.754;2023-06-22T04:08:53;16.60;99.90
16511;DHT22;8368;48.772;8.754;2023-06-22T04:11:19;16.60;99.90
16511;DHT22;8368;48.772;8.754;2023-06-22T04:13:44;16.70;99.90
16511;DHT22;8368;48.772;8.754;2023-06-22T04:16:10;16.70;99.90
16511;DHT22;8368;48.772;8.754;2023-06-22T04:18:35;16.80;99.90
16511;DHT22;8368;48.772;8.754;2023-06-22T04:21:02;16.80;99.90
16511;DHT22;8368;48.772;8.754;2023-06-22T04:23:28;16.90;99.90
16511;DHT22;8368;48.772;8.754;2023-06-22T04:25:53;17.00;99.90
16511;DHT22;8368;48.772;8.754;2023-06-22T04:28:19;17.00;99.90
16511;DHT22;8368;48.772;8.754;2023-06-22T04:30:44;17.00;99.90
16511;DHT22;8368;48.772;8.754;2023-06-22T04:33:16;17.10;99.90
16511;DHT22;8368;48.772;8.754;2023-06-22T04:35:44;17.20;99.90
16511;DHT22;8368;48.772;8.754;2023-06-22T04:38:12;17.30;99.90
16511;DHT22;8368;48.772;8.754;2023-06-22T04:40:38;17.30;99.90
16511;DHT22;8368;48.772;8.754;2023-06-22T04:43:04;17.40;99.90
16511;DHT22;8368;48.772;8.754;2023-06-22T04:45:32;17.40;99.90
16511;DHT22;8368;48.772;8.754;2023-06-22T04:47:58;17.40;99.90
16511;DHT22;8368;48.772;8.754;2023-06-22T04:50:24;17.50;99.90
16511;DHT22;8368;48.772;8.754;2023-06-22T04:52:50;17.50;99.90
16511;DHT22;8368;48.772;8.754;2023-06-22T04:55:16;17.60;99.90
16511;DHT22;8368;48.772;8.754;2023-06-22T04:57:44;17.60;99.90
16511;DHT22;8368;48.772;8.754;2023-06-22T05:00:14;17.70;99.90
16511;DHT22;8368;48.772;8.754;2023-06-22T05:02:43;17.80;99.90
16511;DHT22;8368;48.772;8.754;2023-06-22T05:05:10;17.90;99.90
16511;DHT22;8368;48.772;8.754;2023-06-22T05:07:40;18.00;99.90
16511;DHT22;8368;48.772;8.754;2023-06-22T05:10:10;18.10;99.90
16511;DHT22;8368;48.772;8.754;2023-06-22T05:12:36;18.20;99.90
16511;DHT22;8368;48.772;8.754;2023-06-22T05:15:02;18.30;99.90
16511;DHT22;8368;48.772;8.754;2023-06-22T05:17:28;18.30;99.90
16511;DHT22;8368;48.772;8.754;2023-06-22T05:19:53;18.40;99.90
16511;DHT22;8368;48.772;8.754;2023-06-22T05:22:20;18.40;99.90
16511;DHT22;8368;48.772;8.754;2023-06-22T05:24:46;18.50;99.90
16511;DHT22;8368;48.772;8.754;2023-06-22T05:27:11;18.50;99.90
16511;DHT22;8368;48.772;8.754;2023-06-22T05:29:37;18.60;99.90
16511;DHT22;8368;48.772;8.754;2023-06-22T05:32:03;18.70;99.90
16511;DHT22;8368;48.772;8.754;2023-06-22T05:34:29;18.80;99.90
16511;DHT22;8368;48.772;8.754;2023-06-22T05:36:54;18.90;99.90
16511;DHT22;8368;48.772;8.754;2023-06-22T05:39:20;18.90;99.90
16511;DHT22;8368;48.772;8.754;2023-06-22T05:41:46;19.00;99.90
16511;DHT22;8368;48.772;8.754;2023-06-22T05:44:12;19.00;99.90
16511;DHT22;8368;48.772;8.754;2023-06-22T05:46:41;19.10;99.90
16511;DHT22;8368;48.772;8.754;2023-06-22T05:49:10;19.20;99.90
16511;DHT22;8368;48.772;8.754;2023-06-22T05:51:35;19.30;99.90
16511;DHT22;8368;48.772;8.754;2023-06-22T05:54:01;19.40;99.90
16511;DHT22;8368;48.772;8.754;2023-06-22T05:56:26;19.50;99.90
16511;DHT22;8368;48.772;8.754;2023-06-22T05:58:52;19.60;99.90
16511;DHT22;8368;48.772;8.754;2023-06-22T06:01:17;19.70;99.90
16511;DHT22;8368;48.772;8.754;2023-06-22T06:03:43;19.70;99.90
16511;DHT22;8368;48.772;8.754;2023-06-22T06:06:09;19.90;99.90
16511;DHT22;8368;48.772;8.754;2023-06-22T06:08:36;20.00;99.90
16511;DHT22;8368;48.772;8.754;2023-06-22T06:11:02;20.10;99.90
16511;DHT22;8368;48.772;8.754;2023-06-22T06:13:28;20.20;99.90
16511;DHT22;8368;48.772;8.754;2023-06-22T06:15:53;20.30;99.90
16511;DHT22;8368;48.772;8.754;2023-06-22T06:18:22;20.30;99.90
16511;DHT22;8368;48.772;8.754;2023-06-22T06:20:47;20.40;99.90
16511;DHT22;8368;48.772;8.754;2023-06-22T06:23:13;20.40;99.90
16511;DHT22;8368;48.772;8.754;2023-06-22T06:25:39;20.50;99.90
16511;DHT22;8368;48.772;8.754;2023-06-22T06:28:04;20.50;99.90
16511;DHT22;8368;48.772;8.754;2023-06-22T06:30:30;20.60;99.90
16511;DHT22;8368;48.772;8.754;2023-06-22T06:32:56;20.80;99.90
16511;DHT22;8368;48.772;8.754;2023-06-22T06:35:21;20.80;99.90
16511;DHT22;8368;48.772;8.754;2023-06-22T06:37:49;20.80;99.90
16511;DHT22;8368;48.772;8.754;2023-06-22T06:40:15;21.00;99.90
16511;DHT22;8368;48.772;8.754;2023-06-22T06:42:43;21.00;99.90
16511;DHT22;8368;48.772;8.754;2023-06-22T06:45:19;21.00;99.90
16511;DHT22;8368;48.772;8.754;2023-06-22T06:47:46;21.20;99.90
16511;DHT22;8368;48.772;8.754;2023-06-22T06:50:12;21.30;99.90
16511;DHT22;8368;48.772;8.754;2023-06-22T06:52:38;21.40;99.90
16511;DHT22;8368;48.772;8.754;2023-06-22T06:55:04;21.50;99.90
16511;DHT22;8368;48.772;8.754;2023-06-22T06:57:33;21.50;99.90
16511;DHT22;8368;48.772;8.754;2023-06-22T06:59:59;21.60;99.90
16511;DHT22;8368;48.772;8.754;2023-06-22T07:02:25;21.60;99.90
16511;DHT22;8368;48.772;8.754;2023-06-22T07:04:53;21.70;99.90
16511;DHT22;8368;48.772;8.754;2023-06-22T07:07:20;21.70;99.90
16511;DHT22;8368;48.772;8.754;2023-06-22T07:09:46;21.80;99.90
16511;DHT22;8368;48.772;8.754;2023-06-22T07:12:11;21.90;99.90
16511;DHT22;8368;48.772;8.754;2023-06-22T07:14:37;21.90;99.90
16511;DHT22;8368;48.772;8.754;2023-06-22T07:17:02;22.00;99.90
16511;DHT22;8368;48.772;8.754;2023-06-22T07:19:28;22.10;99.90
16511;DHT22;8368;48.772;8.754;2023-06-22T07:21:54;22.20;99.90
16511;DHT22;8368;48.772;8.754;2023-06-22T07:24:20;22.30;99.90
16511;DHT22;8368;48.772;8.754;2023-06-22T07:26:49;22.40;99.90
16511;DHT22;8368;48.772;8.754;2023-06-22T07:29:17;22.50;99.90
16511;DHT22;8368;48.772;8.754;2023-06-22T07:31:42;22.50;99.90
16511;DHT22;8368;48.772;8.754;2023-06-22T07:34:08;22.60;99.90
16511;DHT22;8368;48.772;8.754;2023-06-22T07:36:34;22.70;99.90
16511;DHT22;8368;48.772;8.754;2023-06-22T07:39:01;22.70;99.90
16511;DHT22;8368;48.772;8.754;2023-06-22T07:41:28;22.80;99.90
16511;DHT22;8368;48.772;8.754;2023-06-22T07:43:53;22.90;99.90
16511;DHT22;8368;48.772;8.754;2023-06-22T07:46:19;22.90;99.90
16511;DHT22;8368;48.772;8.754;2023-06-22T07:48:44;23.00;99.90
16511;DHT22;8368;48.772;8.754;2023-06-22T07:51:10;23.10;99.90
16511;DHT22;8368;48.772;8.754;2023-06-22T07:53:38;23.20;99.90
16511;DHT22;8368;48.772;8.754;2023-06-22T07:56:05;23.20;99.90
16511;DHT22;8368;48.772;8.754;2023-06-22T07:58:32;23.40;99.90
16511;DHT22;8368;48.772;8.754;2023-06-22T08:00:58;23.30;99.90
16511;DHT22;8368;48.772;8.754;2023-06-22T08:03:24;23.40;99.90
16511;DHT22;8368;48.772;8.754;2023-06-22T08:05:50;23.50;99.90
16511;DHT22;8368;48.772;8.754;2023-06-22T08:08:15;23.70;99.90
16511;DHT22;8368;48.772;8.754;2023-06-22T08:10:42;23.90;99.90
16511;DHT22;8368;48.772;8.754;2023-06-22T08:13:08;24.10;99.90
16511;DHT22;8368;48.772;8.754;2023-06-22T08:15:33;24.30;99.90
16511;DHT22;8368;48.772;8.754;2023-06-22T08:17:59;24.50;99.90
16511;DHT22;8368;48.772;8.754;2023-06-22T08:20:26;24.60;99.90
16511;DHT22;8368;48.772;8.754;2023-06-22T08:22:53;24.70;99.90
16511;DHT22;8368;48.772;8.754;2023-06-22T08:25:19;24.80;99.90
16511;DHT22;8368;48.772;8.754;2023-06-22T08:27:45;24.60;99.90
16511;DHT22;8368;48.772;8.754;2023-06-22T08:30:12;24.40;99.90
16511;DHT22;8368;48.772;8.754;2023-06-22T08:32:38;24.30;99.90
16511;DHT22;8368;48.772;8.754;2023-06-22T08:35:03;24.40;99.90
16511;DHT22;8368;48.772;8.754;2023-06-22T08:37:31;24.30;99.90
16511;DHT22;8368;48.772;8.754;2023-06-22T08:40:00;24.20;99.90
16511;DHT22;8368;48.772;8.754;2023-06-22T08:42:36;24.10;99.90
16511;DHT22;8368;48.772;8.754;2023-06-22T08:45:02;24.00;99.90
16511;DHT22;8368;48.772;8.754;2023-06-22T08:47:28;23.90;99.90
16511;DHT22;8368;48.772;8.754;2023-06-22T08:49:53;23.90;99.90
16511;DHT22;8368;48.772;8.754;2023-06-22T08:52:20;24.00;99.90
16511;DHT22;8368;48.772;8.754;2023-06-22T08:54:48;24.10;99.90
16511;DHT22;8368;48.772;8.754;2023-06-22T08:57:14;24.30;99.90
16511;DHT22;8368;48.772;8.754;2023-06-22T08:59:39;24.40;99.90
16511;DHT22;8368;48.772;8.754;2023-06-22T09:02:05;24.40;99.90
16511;DHT22;8368;48.772;8.754;2023-06-22T09:04:31;24.60;99.90
16511;DHT22;8368;48.772;8.754;2023-06-22T09:07:00;24.60;99.90
16511;DHT22;8368;48.772;8.754;2023-06-22T09:09:25;24.60;99.90
16511;DHT22;8368;48.772;8.754;2023-06-22T09:11:51;24.50;99.90
16511;DHT22;8368;48.772;8.754;2023-06-22T09:14:16;24.40;99.90
16511;DHT22;8368;48.772;8.754;2023-06-22T09:16:42;24.30;99.90
16511;DHT22;8368;48.772;8.754;2023-06-22T09:19:07;24.20;99.90
16511;DHT22;8368;48.772;8.754;2023-06-22T09:21:33;24.10;99.90
16511;DHT22;8368;48.772;8.754;2023-06-22T09:23:58;24.20;99.90
16511;DHT22;8368;48.772;8.754;2023-06-22T09:26:24;24.40;99.90
16511;DHT22;8368;48.772;8.754;2023-06-22T09:28:50;24.40;99.90
16511;DHT22;8368;48.772;8.754;2023-06-22T09:31:15;24.60;99.90
16511;DHT22;8368;48.772;8.754;2023-06-22T09:33:42;24.70;99.90
16511;DHT22;8368;48.772;8.754;2023-06-22T09:36:07;24.80;99.90
16511;DHT22;8368;48.772;8.754;2023-06-22T09:38:37;24.90;99.90
16511;DHT22;8368;48.772;8.754;2023-06-22T09:41:02;25.20;99.90
16511;DHT22;8368;48.772;8.754;2023-06-22T09:43:28;25.40;99.90
16511;DHT22;8368;48.772;8.754;2023-06-22T09:45:53;25.60;99.90
16511;DHT22;8368;48.772;8.754;2023-06-22T09:48:19;25.90;99.90
16511;DHT22;8368;48.772;8.754;2023-06-22T09:50:45;26.10;99.90
16511;DHT22;8368;48.772;8.754;2023-06-22T09:53:11;26.30;99.90
16511;DHT22;8368;48.772;8.754;2023-06-22T09:55:37;26.40;99.90
16511;DHT22;8368;48.772;8.754;2023-06-22T09:58:02;26.50;99.90
16511;DHT22;8368;48.772;8.754;2023-06-22T10:00:28;26.60;99.90
16511;DHT22;8368;48.772;8.754;2023-06-22T10:02:53;26.70;99.90
16511;DHT22;8368;48.772;8.754;2023-06-22T10:05:19;26.80;99.90
16511;DHT22;8368;48.772;8.754;2023-06-22T10:07:45;26.90;99.90
16511;DHT22;8368;48.772;8.754;2023-06-22T10:10:11;27.10;99.90
16511;DHT22;8368;48.772;8.754;2023-06-22T10:12:45;27.40;99.90
16511;DHT22;8368;48.772;8.754;2023-06-22T10:15:11;27.50;99.90
16511;DHT22;8368;48.772;8.754;2023-06-22T10:17:36;27.60;99.90
16511;DHT22;8368;48.772;8.754;2023-06-22T10:20:02;27.80;99.90
16511;DHT22;8368;48.772;8.754;2023-06-22T10:22:43;27.80;99.90
16511;DHT22;8368;48.772;8.754;2023-06-22T10:25:10;27.80;99.90
16511;DHT22;8368;48.772;8.754;2023-06-22T10:27:36;27.80;99.90
16511;DHT22;8368;48.772;8.754;2023-06-22T10:30:05;28.10;99.90
16511;DHT22;8368;48.772;8.754;2023-06-22T10:32:31;28.40;99.90
16511;DHT22;8368;48.772;8.754;2023-06-22T10:34:57;28.40;99.90
16511;DHT22;8368;48.772;8.754;2023-06-22T10:37:22;28.30;99.90
16511;DHT22;8368;48.772;8.754;2023-06-22T10:39:48;28.50;99.90
16511;DHT22;8368;48.772;8.754;2023-06-22T10:42:13;28.60;99.90
16511;DHT22;8368;48.772;8.754;2023-06-22T10:44:39;28.50;99.90
16511;DHT22;8368;48.772;8.754;2023-06-22T10:47:06;28.50;99.90
16511;DHT22;8368;48.772;8.754;2023-06-22T10:49:32;28.40;99.90
16511;DHT22;8368;48.772;8.754;2023-06-22T10:51:57;28.50;99.90
16511;DHT22;8368;48.772;8.754;2023-06-22T10:54:23;28.50;99.90
16511;DHT22;8368;48.772;8.754;2023-06-22T10:56:48;28.50;99.90
16511;DHT22;8368;48.772;8.754;2023-06-22T10:59:14;28.80;99.90
16511;DHT22;8368;48.772;8.754;2023-06-22T11:01:40;28.80;99.90
16511;DHT22;8368;48.772;8.754;2023-06-22T11:04:05;29.00;99.90
16511;DHT22;8368;48.772;8.754;2023-06-22T11:06:31;29.10;99.90
16511;DHT22;8368;48.772;8.754;2023-06-22T11:08:56;29.40;99.90
16511;DHT22;8368;48.772;8.754;2023-06-22T11:11:23;29.40;99.90
16511;DHT22;8368;48.772;8.754;2023-06-22T11:13:48;29.40;99.90
16511;DHT22;8368;48.772;8.754;2023-06-22T11:16:14;29.30;99.90
16511;DHT22;8368;48.772;8.754;2023-06-22T11:18:39;29.30;99.90
16511;DHT22;8368;48.772;8.754;2023-06-22T11:21:05;29.10;99.90
16511;DHT22;8368;48.772;8.754;2023-06-22T11:23:30;28.80;99.90
16511;DHT22;8368;48.772;8.754;2023-06-22T11:25:56;28.90;99.90
16511;DHT22;8368;48.772;8.754;2023-06-22T11:28:22;28.80;99.90
16511;DHT22;8368;48.772;8.754;2023-06-22T11:30:47;28.70;99.90
16511;DHT22;8368;48.772;8.754;2023-06-22T11:33:13;28.70;99.90
16511;DHT22;8368;48.772;8.754;2023-06-22T11:35:38;28.70;99.90
16511;DHT22;8368;48.772;8.754;2023-06-22T11:38:04;28.60;99.90
16511;DHT22;8368;48.772;8.754;2023-06-22T11:40:30;28.60;99.90
16511;DHT22;8368;48.772;8.754;2023-06-22T11:42:55;28.50;99.90
16511;DHT22;8368;48.772;8.754;2023-06-22T11:45:21;28.60;99.90
16511;DHT22;8368;48.772;8.754;2023-06-22T11:47:47;28.40;99.90
16511;DHT22;8368;48.772;8.754;2023-06-22T11:50:12;28.20;99.90
16511;DHT22;8368;48.772;8.754;2023-06-22T11:52:38;28.00;99.90
16511;DHT22;8368;48.772;8.754;2023-06-22T11:55:04;27.70;99.90
16511;DHT22;8368;48.772;8.754;2023-06-22T11:57:33;27.50;99.90
16511;DHT22;8368;48.772;8.754;2023-06-22T11:59:59;27.30;99.90
16511;DHT22;8368;48.772;8.754;2023-06-22T12:02:25;27.30;99.90
16511;DHT22;8368;48.772;8.754;2023-06-22T12:04:50;27.20;99.90
16511;DHT22;8368;48.772;8.754;2023-06-22T12:07:18;27.30;99.90
16511;DHT22;8368;48.772;8.754;2023-06-22T12:09:43;27.20;99.90
16511;DHT22;8368;48.772;8.754;2023-06-22T12:12:09;27.20;99.90
16511;DHT22;8368;48.772;8.754;2023-06-22T12:14:35;27.30;99.90
16511;DHT22;8368;48.772;8.754;2023-06-22T12:17:01;27.60;99.90
16511;DHT22;8368;48.772;8.754;2023-06-22T12:19:26;27.80;99.90
16511;DHT22;8368;48.772;8.754;2023-06-22T12:21:52;28.00;99.90
16511;DHT22;8368;48.772;8.754;2023-06-22T12:24:17;28.10;99.90
16511;DHT22;8368;48.772;8.754;2023-06-22T12:26:43;28.10;99.90
16511;DHT22;8368;48.772;8.754;2023-06-22T12:29:09;28.30;99.90
16511;DHT22;8368;48.772;8.754;2023-06-22T12:31:36;28.30;99.90
16511;DHT22;8368;48.772;8.754;2023-06-22T12:34:02;28.30;99.90
16511;DHT22;8368;48.772;8.754;2023-06-22T12:36:27;28.40;99.90
16511;DHT22;8368;48.772;8.754;2023-06-22T12:38:53;28.60;99.90
16511;DHT22;8368;48.772;8.754;2023-06-22T12:41:19;28.80;99.90
16511;DHT22;8368;48.772;8.754;2023-06-22T12:43:44;29.00;99.90
16511;DHT22;8368;48.772;8.754;2023-06-22T12:46:10;29.10;99.90
16511;DHT22;8368;48.772;8.754;2023-06-22T12:48:35;29.40;99.90
16511;DHT22;8368;48.772;8.754;2023-06-22T12:51:07;29.60;99.90
16511;DHT22;8368;48.772;8.754;2023-06-22T12:53:32;29.80;99.90
16511;DHT22;8368;48.772;8.754;2023-06-22T12:55:58;30.00;99.90
16511;DHT22;8368;48.772;8.754;2023-06-22T12:58:23;30.30;99.90
16511;DHT22;8368;48.772;8.754;2023-06-22T13:00:49;30.20;99.90
16511;DHT22;8368;48.772;8.754;2023-06-22T13:03:15;30.00;99.90
16511;DHT22;8368;48.772;8.754;2023-06-22T13:05:40;29.90;99.90
16511;DHT22;8368;48.772;8.754;2023-06-22T13:08:06;29.80;99.90
16511;DHT22;8368;48.772;8.754;2023-06-22T13:10:31;29.60;99.90
16511;DHT22;8368;48.772;8.754;2023-06-22T13:12:57;29.70;99.90
16511;DHT22;8368;48.772;8.754;2023-06-22T13:15:27;29.80;99.90
16511;DHT22;8368;48.772;8.754;2023-06-22T13:17:53;30.00;99.90
16511;DHT22;8368;48.772;8.754;2023-06-22T13:20:19;30.10;99.90
16511;DHT22;8368;48.772;8.754;2023-06-22T13:22:44;30.20;99.90
16511;DHT22;8368;48.772;8.754;2023-06-22T13:25:10;30.10;99.90
16511;DHT22;8368;48.772;8.754;2023-06-22T13:27:38;30.00;99.90
16511;DHT22;8368;48.772;8.754;2023-06-22T13:30:05;30.20;99.90
16511;DHT22;8368;48.772;8.754;2023-06-22T13:32:30;30.50;99.90
16511;DHT22;8368;48.772;8.754;2023-06-22T13:34:56;30.60;99.90
16511;DHT22;8368;48.772;8.754;2023-06-22T13:37:21;30.50;99.90
16511;DHT22;8368;48.772;8.754;2023-06-22T13:39:47;30.50;99.90
16511;DHT22;8368;48.772;8.754;2023-06-22T13:42:12;30.90;99.90
16511;DHT22;8368;48.772;8.754;2023-06-22T13:44:38;31.00;99.90
16511;DHT22;8368;48.772;8.754;2023-06-22T13:47:04;30.90;99.90
16511;DHT22;8368;48.772;8.754;2023-06-22T13:49:30;30.90;99.90
16511;DHT22;8368;48.772;8.754;2023-06-22T13:51:55;30.90;99.90
16511;DHT22;8368;48.772;8.754;2023-06-22T13:54:21;30.70;99.90
16511;DHT22;8368;48.772;8.754;2023-06-22T13:56:47;30.40;99.90
16511;DHT22;8368;48.772;8.754;2023-06-22T13:59:12;30.20;99.90
16511;DHT22;8368;48.772;8.754;2023-06-22T14:01:38;29.90;99.90
16511;DHT22;8368;48.772;8.754;2023-06-22T14:04:07;29.60;99.90
16511;DHT22;8368;48.772;8.754;2023-06-22T14:06:32;29.60;99.90
16511;DHT22;8368;48.772;8.754;2023-06-22T14:08:58;29.40;99.90
16511;DHT22;8368;48.772;8.754;2023-06-22T14:11:24;29.40;99.90
16511;DHT22;8368;48.772;8.754;2023-06-22T14:13:50;29.30;99.90
16511;DHT22;8368;48.772;8.754;2023-06-22T14:16:15;29.20;99.90
16511;DHT22;8368;48.772;8.754;2023-06-22T14:18:41;29.20;99.90
16511;DHT22;8368;48.772;8.754;2023-06-22T14:21:07;29.20;99.90
16511;DHT22;8368;48.772;8.754;2023-06-22T14:23:32;29.20;99.90
16511;DHT22;8368;48.772;8.754;2023-06-22T14:25:58;29.20;99.90
16511;DHT22;8368;48.772;8.754;2023-06-22T14:28:24;29.20;99.90
16511;DHT22;8368;48.772;8.754;2023-06-22T14:30:49;29.20;99.90
16511;DHT22;8368;48.772;8.754;2023-06-22T14:33:15;29.00;99.90
16511;DHT22;8368;48.772;8.754;2023-06-22T14:35:40;29.00;99.90
16511;DHT22;8368;48.772;8.754;2023-06-22T14:38:06;28.90;99.90
16511;DHT22;8368;48.772;8.754;2023-06-22T14:40:31;28.80;99.90
16511;DHT22;8368;48.772;8.754;2023-06-22T14:42:57;28.70;99.90
16511;DHT22;8368;48.772;8.754;2023-06-22T14:45:26;28.50;99.90
16511;DHT22;8368;48.772;8.754;2023-06-22T14:47:52;28.60;99.90
16511;DHT22;8368;48.772;8.754;2023-06-22T14:50:18;28.60;99.90
16511;DHT22;8368;48.772;8.754;2023-06-22T14:52:43;28.70;99.90
16511;DHT22;8368;48.772;8.754;2023-06-22T14:55:09;28.70;99.90
16511;DHT22;8368;48.772;8.754;2023-06-22T14:57:35;29.10;99.90
16511;DHT22;8368;48.772;8.754;2023-06-22T15:00:00;29.40;99.90
16511;DHT22;8368;48.772;8.754;2023-06-22T15:02:27;29.60;99.90
16511;DHT22;8368;48.772;8.754;2023-06-22T15:04:53;29.70;99.90
16511;DHT22;8368;48.772;8.754;2023-06-22T15:07:19;29.50;99.90
16511;DHT22;8368;48.772;8.754;2023-06-22T15:09:45;29.40;99.90
16511;DHT22;8368;48.772;8.754;2023-06-22T15:12:11;29.30;99.90
16511;DHT22;8368;48.772;8.754;2023-06-22T15:14:40;29.00;99.90
16511;DHT22;8368;48.772;8.754;2023-06-22T15:17:07;28.90;99.90
16511;DHT22;8368;48.772;8.754;2023-06-22T15:19:37;28.80;99.90
16511;DHT22;8368;48.772;8.754;2023-06-22T15:22:04;28.70;99.90
16511;DHT22;8368;48.772;8.754;2023-06-22T15:24:31;28.70;99.90
16511;DHT22;8368;48.772;8.754;2023-06-22T15:26:56;28.80;99.90
16511;DHT22;8368;48.772;8.754;2023-06-22T15:29:22;28.60;99.90
16511;DHT22;8368;48.772;8.754;2023-06-22T15:31:47;28.50;99.90
16511;DHT22;8368;48.772;8.754;2023-06-22T15:34:13;28.30;99.90
16511;DHT22;8368;48.772;8.754;2023-06-22T15:36:39;28.20;99.90
16511;DHT22;8368;48.772;8.754;2023-06-22T15:39:04;28.30;99.90
16511;DHT22;8368;48.772;8.754;2023-06-22T15:41:30;28.40;99.90
16511;DHT22;8368;48.772;8.754;2023-06-22T15:43:55;28.50;99.90
16511;DHT22;8368;48.772;8.754;2023-06-22T15:46:21;28.70;99.90
16511;DHT22;8368;48.772;8.754;2023-06-22T15:48:46;28.80;99.90